Time;durP1;ratioP1;P1;durP2;ratioP2;P2;SDS_P1;SDS_P2;PMS_P1;PMS_P2;Temp;Humidity;BMP_temperature;BMP_pressure;BME280_temperature;BME280_humidity;BME280_pressure;Samples;Min_cycle;Max_cycle;Signal;HPM_P1;HPM_P2
2023/02/12 00:01:28;;;;;;;4.43;2.33;;;;;;;2.53;52.33;102404.50;5070176;28;20491;-82
2023/02/12 00:03:54;;;;;;;5.55;3.70;;;;;;;2.55;51.48;102405.38;5070561;28;20028;-82
2023/02/12 00:06:19;;;;;;;4.43;2.25;;;;;;;2.54;51.80;102408.78;5070636;28;20029;-82
2023/02/12 00:08:47;;;;;;;2.00;1.90;;;;;;;2.52;51.51;102405.34;5070180;28;20044;-82
2023/02/12 00:11:15;;;;;;;3.17;2.88;;;;;;;2.37;51.54;102369.41;5070103;28;20028;-82
2023/02/12 00:13:40;;;;;;;2.83;2.58;;;;;;;2.59;51.82;102402.03;5087258;28;20491;-82
2023/02/12 00:16:11;;;;;;;1.90;1.58;;;;;;;2.60;51.69;102402.91;5086769;28;20036;-82
2023/02/12 00:18:36;;;;;;;4.88;3.85;;;;;;;2.66;51.48;102417.47;5087214;28;20970;-83
2023/02/12 00:21:02;;;;;;;4.93;2.63;;;;;;;2.55;51.31;102387.50;5070773;28;20020;-82
2023/02/12 00:23:27;;;;;;;2.05;1.85;;;;;;;2.59;51.54;102396.94;5070423;28;20505;-82
2023/02/12 00:25:53;;;;;;;4.85;2.58;;;;;;;2.64;50.75;102396.13;5053649;28;20028;-83
2023/02/12 00:28:18;;;;;;;2.25;1.75;;;;;;;2.53;49.98;102339.78;5087510;28;20491;-82
2023/02/12 00:30:44;;;;;;;18.42;3.83;;;;;;;2.85;49.82;102391.25;5069948;28;20032;-83
2023/02/12 00:33:09;;;;;;;2.67;2.47;;;;;;;2.91;49.72;102373.44;5070203;28;20032;-83
2023/02/12 00:35:35;;;;;;;2.72;1.67;;;;;;;3.04;48.99;102384.63;5086753;28;20032;-83
2023/02/12 00:38:00;;;;;;;4.00;2.67;;;;;;;2.96;48.86;102364.13;5086933;28;20078;-82
2023/02/12 00:40:26;;;;;;;5.57;3.65;;;;;;;3.20;48.30;102368.63;5087046;28;20032;-82
2023/02/12 00:42:51;;;;;;;5.82;2.47;;;;;;;3.25;48.45;102368.66;5069660;28;20028;-82
2023/02/12 00:45:17;;;;;;;0.70;0.70;;;;;;;3.27;48.89;102361.88;5069561;28;20029;-83
2023/02/12 00:47:42;;;;;;;3.28;2.13;;;;;;;3.26;48.22;102362.72;5086785;28;20060;-83
2023/02/12 00:50:08;;;;;;;5.63;3.80;;;;;;;3.10;48.29;102342.09;5069733;28;20032;-83
2023/02/12 00:52:33;;;;;;;3.80;2.60;;;;;;;3.19;48.43;102364.34;5086649;28;20169;-82
2023/02/12 00:54:59;;;;;;;6.13;3.78;;;;;;;3.17;48.57;102361.78;5069762;28;20025;-82
2023/02/12 00:57:24;;;;;;;1.90;1.58;;;;;;;3.15;48.33;102358.34;5069690;28;20024;-82
2023/02/12 00:59:50;;;;;;;2.90;1.88;;;;;;;3.17;48.55;102346.44;5052348;28;20025;-83
2023/02/12 01:02:16;;;;;;;3.80;3.35;;;;;;;3.08;48.07;102341.22;5086772;28;20492;-82
2023/02/12 01:04:42;;;;;;;6.40;3.55;;;;;;;3.13;48.36;102347.22;5052836;28;20032;-83
2023/02/12 01:07:08;;;;;;;5.88;3.25;;;;;;;3.11;48.38;102346.38;5086566;28;20028;-83
2023/02/12 01:09:33;;;;;;;5.57;3.80;;;;;;;3.10;48.16;102344.66;5068999;28;20417;-82
2023/02/12 01:11:58;;;;;;;4.75;3.13;;;;;;;3.11;48.68;102356.59;5085802;28;20029;-83
2023/02/12 01:14:24;;;;;;;9.23;4.13;;;;;;;3.02;48.64;102330.94;5069480;28;20031;-82
2023/02/12 01:16:49;;;;;;;2.25;1.92;;;;;;;2.98;49.37;102339.44;5086373;28;20097;-82
2023/02/12 01:19:15;;;;;;;8.02;3.25;;;;;;;3.09;49.18;102383.00;5069374;28;20028;-82
2023/02/12 01:21:40;;;;;;;6.88;4.28;;;;;;;2.95;49.54;102372.66;5069433;28;20039;-82
2023/02/12 01:24:06;;;;;;;3.20;2.90;;;;;;;2.93;49.92;102381.97;5052703;28;20051;-83
2023/02/12 01:26:31;;;;;;;6.82;4.20;;;;;;;2.91;50.16;102382.81;5085928;28;20031;-83
2023/02/12 01:29:00;;;;;;;2.20;2.05;;;;;;;2.81;50.65;102363.97;5085940;28;20038;-82
2023/02/12 01:31:26;;;;;;;4.28;3.08;;;;;;;2.66;50.75;102336.56;5086105;28;20028;-82
2023/02/12 01:33:53;;;;;;;2.42;1.27;;;;;;;2.82;51.08;102363.13;5069258;28;20106;-82
2023/02/12 01:36:19;;;;;;;7.53;4.93;;;;;;;2.73;50.83;102373.22;5086174;28;20024;-83
2023/02/12 01:38:44;;;;;;;3.63;2.72;;;;;;;2.78;50.06;102377.56;5069373;28;20032;-82
2023/02/12 01:41:29;;;;;;;4.25;2.65;;;;;;;2.79;50.21;102368.19;5069058;28;20017;-82
2023/02/12 01:44:11;;;;;;;7.65;3.60;;;;;;;2.83;49.81;102363.13;5083711;28;20024;-82
2023/02/12 01:46:36;;;;;;;3.97;2.90;;;;;;;2.83;49.75;102358.00;5085652;28;20040;-82
2023/02/12 01:49:02;;;;;;;3.22;1.92;;;;;;;3.00;49.59;102376.09;5068874;28;20484;-82
2023/02/12 01:51:29;;;;;;;6.22;3.20;;;;;;;2.97;49.60;102368.41;5086001;28;20029;-82
2023/02/12 01:53:54;;;;;;;6.13;3.67;;;;;;;2.90;50.00;102353.84;5085932;28;20029;-82
2023/02/12 01:56:20;;;;;;;4.03;3.55;;;;;;;3.02;49.47;102370.97;5068724;28;20397;-82
2023/02/12 01:58:46;;;;;;;6.00;3.35;;;;;;;3.07;49.52;102369.34;5069123;28;20032;-82
2023/02/12 02:01:20;;;;;;;5.68;3.17;;;;;;;3.02;49.22;102347.97;5085710;28;20119;-83
2023/02/12 02:03:48;;;;;;;2.80;2.17;;;;;;;3.16;48.80;102351.53;5085922;28;20025;-82
2023/02/12 02:06:26;;;;;;;9.65;4.13;;;;;;;3.02;48.42;102325.81;5085679;28;20479;-82
2023/02/12 02:08:51;;;;;;;4.85;2.83;;;;;;;3.19;48.30;102369.47;5068743;28;20084;-82
2023/02/12 02:14:33;;;;;;;2.67;1.73;;;;;;;3.17;48.65;102356.66;5031572;28;20440;-83
2023/02/12 02:17:11;;;;;;;7.88;3.92;;;;;;;3.21;48.68;102359.25;5066413;28;20494;-82
2023/02/12 02:20:03;;;;;;;2.40;1.33;;;;;;;3.15;48.84;102368.59;5089499;28;20024;-82
2023/02/12 02:22:46;;;;;;;2.97;2.38;;;;;;;3.11;48.86;102355.75;5089922;28;20024;-82
2023/02/12 02:25:12;;;;;;;5.13;3.13;;;;;;;3.21;48.91;102382.25;5089293;28;20101;-82
2023/02/12 02:27:41;;;;;;;2.75;2.30;;;;;;;3.06;48.71;102354.84;5073915;28;20495;-82
2023/02/12 02:30:22;;;;;;;4.90;3.25;;;;;;;3.14;49.10;102384.75;5089310;28;20025;-83
2023/02/12 02:32:54;;;;;;;5.78;3.25;;;;;;;3.03;48.78;102371.00;5089333;28;20046;-82
2023/02/12 02:35:26;;;;;;;5.53;3.58;;;;;;;3.22;49.25;102379.72;5088750;28;20028;-83
2023/02/12 02:38:28;;;;;;;6.10;3.75;;;;;;;3.22;49.00;102378.84;5089181;28;20514;-82
2023/02/12 02:41:04;;;;;;;3.65;2.53;;;;;;;3.28;49.44;102390.00;5086535;28;20505;-82
2023/02/12 02:43:45;;;;;;;6.22;3.25;;;;;;;3.25;49.11;102373.78;5088691;28;20115;-82
2023/02/12 02:46:31;;;;;;;5.03;3.50;;;;;;;3.03;49.24;102348.00;5088596;28;20388;-83
2023/02/12 02:49:24;;;;;;;4.55;2.75;;;;;;;3.24;49.14;102383.13;5085450;28;20052;-82
2023/02/12 02:52:02;;;;;;;5.07;3.65;;;;;;;3.28;49.34;102371.25;5065427;28;20443;-82
2023/02/12 02:54:36;;;;;;;4.13;3.70;;;;;;;3.28;48.63;102371.25;5088196;28;20457;-82
2023/02/12 02:57:15;;;;;;;7.88;4.38;;;;;;;3.27;48.94;102374.66;5088417;28;20029;-82
2023/02/12 02:59:46;;;;;;;4.55;3.85;;;;;;;3.29;48.95;102378.94;5087755;28;20070;-83
2023/02/12 03:02:16;;;;;;;6.47;4.97;;;;;;;3.19;48.97;102368.59;5088797;28;20100;-82
2023/02/12 03:04:44;;;;;;;3.40;2.28;;;;;;;3.12;49.92;102367.69;5088741;28;20040;-82
2023/02/12 03:07:19;;;;;;;3.00;2.75;;;;;;;3.03;49.31;102358.22;5088253;28;20036;-82
2023/02/12 03:09:48;;;;;;;10.60;5.32;;;;;;;3.09;50.04;102386.41;5088406;28;20178;-82
2023/02/12 03:12:19;;;;;;;5.75;4.00;;;;;;;3.18;49.99;102370.31;5071498;28;20033;-82
2023/02/12 03:14:51;;;;;;;4.45;4.05;;;;;;;3.26;49.93;102360.16;5087884;28;20067;-82
2023/02/12 03:17:29;;;;;;;3.83;1.92;;;;;;;3.22;48.70;102361.81;5071614;28;20031;-82
2023/02/12 03:19:58;;;;;;;7.10;3.72;;;;;;;3.40;48.20;102376.47;5088269;28;20036;-82
2023/02/12 03:22:37;;;;;;;5.68;3.10;;;;;;;3.37;47.49;102358.53;5087960;28;20111;-83
2023/02/12 03:25:22;;;;;;;3.60;2.50;;;;;;;3.51;47.05;102369.72;5087533;28;20032;-83
2023/02/12 03:28:15;;;;;;;5.63;2.10;;;;;;;3.72;46.87;102390.38;5087243;28;20045;-82
2023/02/12 03:30:49;;;;;;;4.03;2.80;;;;;;;3.66;46.62;102374.13;5068610;28;20161;-82
2023/02/12 03:33:20;;;;;;;2.28;1.45;;;;;;;3.68;47.12;102375.00;5088216;28;20071;-83
2023/02/12 03:35:59;;;;;;;5.47;3.58;;;;;;;3.84;46.37;102393.88;5087892;28;20093;-83
2023/02/12 03:38:33;;;;;;;2.78;1.67;;;;;;;3.93;46.07;102401.59;5087333;28;20031;-82
2023/02/12 03:41:05;;;;;;;2.53;2.33;;;;;;;3.92;45.28;102392.22;5072687;28;20107;-82
2023/02/12 03:44:03;;;;;;;5.60;3.95;;;;;;;3.92;45.07;102379.41;5087546;28;20111;-82
2023/02/12 03:46:45;;;;;;;7.75;3.72;;;;;;;4.08;45.46;102396.59;5071720;28;20041;-82
2023/02/12 03:49:20;;;;;;;3.58;3.28;;;;;;;4.11;45.51;102394.03;5072228;28;20029;-83
2023/02/12 03:51:45;;;;;;;3.15;2.80;;;;;;;4.12;45.44;102387.22;5069992;28;20128;-82
2023/02/12 03:54:12;;;;;;;9.45;5.78;;;;;;;4.15;45.49;102395.78;5087922;28;20032;-82
2023/02/12 03:56:48;;;;;;;9.38;5.82;;;;;;;4.02;45.47;102394.84;5070796;28;20032;-82
2023/02/12 03:59:13;;;;;;;2.30;2.10;;;;;;;3.96;45.55;102397.38;5087469;28;20530;-83
2023/02/12 04:01:39;;;;;;;3.78;3.38;;;;;;;3.97;45.78;102388.00;5070772;28;20024;-82
2023/02/12 04:04:05;;;;;;;6.78;4.90;;;;;;;3.97;46.06;102391.41;5087423;28;20484;-82
2023/02/12 04:06:31;;;;;;;7.38;3.88;;;;;;;3.90;46.19;102396.47;5070387;28;20027;-83
2023/02/12 04:08:58;;;;;;;4.65;3.47;;;;;;;3.95;46.67;102389.69;5087060;28;20048;-83
2023/02/12 04:11:37;;;;;;;3.80;2.03;;;;;;;3.72;45.68;102357.09;5087232;28;20079;-82
2023/02/12 04:14:20;;;;;;;4.18;1.92;;;;;;;3.96;45.54;102399.09;5086951;28;20052;-82
2023/02/12 04:17:25;;;;;;;2.97;2.65;;;;;;;3.90;46.03;102396.47;5085841;28;20511;-82
2023/02/12 04:20:11;;;;;;;2.17;2.08;;;;;;;3.98;45.88;102411.03;5070064;28;20415;-82
2023/02/12 04:23:11;;;;;;;8.25;3.00;;;;;;;3.94;46.05;102403.34;5069789;28;20017;-82
2023/02/12 04:26:02;;;;;;;3.60;2.95;;;;;;;3.97;46.38;102399.09;5087158;28;20113;-82
2023/02/12 04:28:43;;;;;;;4.18;2.30;;;;;;;3.95;45.81;102405.06;5068993;28;20503;-82
2023/02/12 04:31:29;;;;;;;3.60;3.17;;;;;;;3.98;45.77;102405.06;5086975;28;20464;-82
2023/02/12 04:34:22;;;;;;;5.05;3.42;;;;;;;3.86;45.84;102361.47;5086675;28;20137;-83
2023/02/12 04:37:01;;;;;;;3.88;3.50;;;;;;;4.03;46.26;102401.69;5083459;28;20492;-82
2023/02/12 04:39:28;;;;;;;6.88;3.30;;;;;;;3.80;46.20;102363.97;5085872;28;20031;-83
2023/02/12 04:41:57;;;;;;;8.13;4.38;;;;;;;4.02;46.18;102387.16;5069949;28;20039;-83
2023/02/12 04:44:26;;;;;;;4.03;3.20;;;;;;;3.84;45.95;102371.69;5069939;28;20063;-82
2023/02/12 04:46:51;;;;;;;4.05;2.78;;;;;;;4.01;46.43;102394.84;5086726;28;20100;-83
2023/02/12 04:49:18;;;;;;;5.88;4.72;;;;;;;3.95;46.08;102400.78;5069857;28;20033;-83
2023/02/12 04:51:44;;;;;;;1.88;1.77;;;;;;;3.94;46.08;102408.47;5086237;28;20024;-83
2023/02/12 04:54:09;;;;;;;5.93;4.90;;;;;;;3.95;46.32;102402.50;5086751;28;20439;-82
2023/02/12 04:56:35;;;;;;;3.00;2.53;;;;;;;3.65;46.52;102370.72;5069494;28;20039;-82
2023/02/12 04:59:00;;;;;;;6.15;4.72;;;;;;;3.89;46.41;102400.72;5086522;28;20419;-83
2023/02/12 05:01:25;;;;;;;3.45;3.08;;;;;;;3.72;46.46;102385.25;5086689;28;20029;-82
2023/02/12 05:03:51;;;;;;;9.35;4.00;;;;;;;3.72;47.11;102392.94;5086887;28;20024;-82
2023/02/12 05:06:17;;;;;;;5.80;2.10;;;;;;;3.69;47.67;102408.28;5069403;28;20556;-82
2023/02/12 05:08:42;;;;;;;4.65;4.05;;;;;;;3.61;47.58;102394.53;5052665;28;20481;-82
2023/02/12 05:11:08;;;;;;;5.68;4.65;;;;;;;3.63;47.70;102397.97;5069527;28;20040;-82
2023/02/12 05:13:33;;;;;;;6.68;4.90;;;;;;;3.68;47.87;102406.56;5086406;28;20491;-82
2023/02/12 05:15:59;;;;;;;5.38;3.20;;;;;;;3.74;47.89;102411.72;5086106;28;20505;-82
2023/02/12 05:18:25;;;;;;;13.13;4.32;;;;;;;3.79;47.89;102419.44;5069527;28;20025;-82
2023/02/12 05:20:57;;;;;;;8.93;5.22;;;;;;;3.71;47.93;102396.34;5085866;28;20035;-82
2023/02/12 05:23:26;;;;;;;8.48;6.15;;;;;;;3.71;48.19;102404.00;5086446;28;20808;-83
2023/02/12 05:25:51;;;;;;;5.85;4.82;;;;;;;3.74;48.06;102411.72;5086116;28;20036;-82
2023/02/12 05:28:17;;;;;;;8.55;5.00;;;;;;;3.53;49.02;102408.13;5052631;28;20043;-82
2023/02/12 05:30:42;;;;;;;5.55;4.40;;;;;;;3.54;49.29;102410.72;5085885;28;20038;-82
2023/02/12 05:33:07;;;;;;;9.10;5.05;;;;;;;3.52;49.60;102407.25;5052236;28;20510;-83
2023/02/12 05:35:34;;;;;;;9.73;4.53;;;;;;;3.51;49.46;102405.56;5070555;28;20055;-83
2023/02/12 05:37:59;;;;;;;5.75;4.32;;;;;;;3.73;49.52;102433.03;5069400;28;20062;-83
2023/02/12 05:40:25;;;;;;;5.45;4.57;;;;;;;3.83;49.14;102440.78;5052572;28;20028;-83
2023/02/12 05:42:50;;;;;;;12.35;8.05;;;;;;;3.76;49.06;102429.66;5069134;28;20035;-83
2023/02/12 05:45:16;;;;;;;10.10;6.45;;;;;;;3.62;49.38;102434.66;5068997;28;20035;-83
2023/02/12 05:47:41;;;;;;;8.05;5.30;;;;;;;3.76;49.60;102439.06;5071947;28;21596;-82
2023/02/12 05:50:07;;;;;;;7.75;6.47;;;;;;;3.80;49.89;102456.13;5074256;28;20082;-82
2023/02/12 05:52:33;;;;;;;9.13;5.10;;;;;;;3.82;49.31;102459.56;5073149;28;20115;-82
2023/02/12 05:54:58;;;;;;;8.05;5.68;;;;;;;3.82;49.65;102465.53;5073278;28;20036;-83
2023/02/12 05:57:24;;;;;;;8.75;6.13;;;;;;;3.81;49.67;102471.50;5056561;28;20031;-83
2023/02/12 05:59:49;;;;;;;8.45;4.90;;;;;;;3.70;49.88;102461.19;5073099;28;20487;-82
2023/02/12 06:02:14;;;;;;;6.95;5.13;;;;;;;3.80;50.17;102461.25;5072828;28;20029;-83
2023/02/12 06:04:40;;;;;;;21.45;8.45;;;;;;;3.91;50.14;102477.56;5073006;28;20036;-82
2023/02/12 06:07:06;;;;;;;11.82;6.90;;;;;;;3.89;50.29;102494.63;5072954;28;20028;-83
2023/02/12 06:09:32;;;;;;;9.30;6.13;;;;;;;3.90;50.17;102497.19;5072781;28;20045;-82
2023/02/12 06:11:57;;;;;;;8.35;5.43;;;;;;;3.93;50.41;102489.56;5089835;28;20024;-83
2023/02/12 06:14:23;;;;;;;12.23;6.35;;;;;;;3.92;50.07;102497.19;5089717;28;20036;-82
2023/02/12 06:16:49;;;;;;;10.18;7.55;;;;;;;3.87;50.55;102478.38;5072468;28;20513;-82
2023/02/12 06:19:14;;;;;;;6.35;5.53;;;;;;;3.97;50.62;102505.78;5089647;28;20028;-83
2023/02/12 06:21:40;;;;;;;6.75;5.10;;;;;;;4.02;50.92;102514.34;5072616;28;20089;-83
2023/02/12 06:24:05;;;;;;;18.42;6.03;;;;;;;3.95;50.84;102502.38;5089251;28;20028;-82
2023/02/12 06:26:31;;;;;;;11.10;8.30;;;;;;;4.05;51.03;102509.28;5089547;28;20021;-82
2023/02/12 06:28:56;;;;;;;9.02;5.43;;;;;;;3.89;51.66;102486.94;5089587;28;20040;-82
2023/02/12 06:31:27;;;;;;;10.23;4.22;;;;;;;4.11;51.32;102513.56;5088791;28;20024;-83
2023/02/12 06:33:53;;;;;;;8.15;5.43;;;;;;;4.07;51.80;102507.56;5088532;28;20033;-82
2023/02/12 06:36:19;;;;;;;6.00;4.38;;;;;;;4.00;52.03;102510.94;5072394;28;20067;-82
2023/02/12 06:38:44;;;;;;;6.72;5.05;;;;;;;4.11;52.32;102514.44;5089368;28;20067;-82
2023/02/12 06:41:10;;;;;;;6.03;3.88;;;;;;;4.07;52.32;102524.66;5089524;28;20477;-82
2023/02/12 06:43:35;;;;;;;9.07;5.57;;;;;;;4.20;52.52;102527.31;5072331;28;20029;-82
2023/02/12 06:46:01;;;;;;;11.93;6.68;;;;;;;4.23;52.42;102523.94;5088868;28;20048;-83
2023/02/12 06:48:27;;;;;;;7.95;4.72;;;;;;;4.17;52.38;102508.50;5072098;28;20039;-82
2023/02/12 06:50:52;;;;;;;7.88;5.82;;;;;;;4.40;52.83;102542.84;5071978;28;20487;-83
2023/02/12 06:53:18;;;;;;;9.82;7.18;;;;;;;4.42;52.94;102551.38;5072181;28;20025;-82
2023/02/12 06:55:43;;;;;;;8.40;6.90;;;;;;;4.19;53.16;102510.22;5071740;28;20025;-83
2023/02/12 06:58:08;;;;;;;8.05;5.38;;;;;;;4.45;53.43;102546.28;5070481;28;20040;-82
2023/02/12 07:00:34;;;;;;;14.65;7.13;;;;;;;4.54;53.44;102566.88;5071568;28;20089;-82
2023/02/12 07:02:59;;;;;;;6.50;4.72;;;;;;;4.54;53.32;102576.28;5088747;28;20488;-83
2023/02/12 07:05:25;;;;;;;8.52;5.20;;;;;;;4.55;53.77;102562.59;5072221;28;21139;-82
2023/02/12 07:07:50;;;;;;;10.32;5.70;;;;;;;4.60;53.56;102566.03;5088326;28;20405;-82
2023/02/12 07:10:17;;;;;;;12.70;7.05;;;;;;;4.55;54.01;102577.97;5071901;28;20029;-82
2023/02/12 07:12:42;;;;;;;7.75;5.38;;;;;;;4.54;54.48;102578.81;5088673;28;20033;-83
2023/02/12 07:15:08;;;;;;;14.02;7.18;;;;;;;4.50;54.53;102585.63;5088326;28;20035;-82
2023/02/12 07:17:34;;;;;;;9.07;5.38;;;;;;;4.44;54.92;102585.59;5071504;28;20540;-82
2023/02/12 07:19:59;;;;;;;15.63;7.05;;;;;;;4.53;55.17;102579.69;5071655;28;20031;-82
2023/02/12 07:22:25;;;;;;;8.18;5.43;;;;;;;4.48;55.57;102595.00;5088479;28;20432;-82
2023/02/12 07:24:50;;;;;;;14.18;6.85;;;;;;;4.57;55.28;102594.22;5071401;28;20032;-82
2023/02/12 07:27:16;;;;;;;8.18;4.20;;;;;;;4.54;55.56;102583.97;5071251;28;20040;-82
2023/02/12 07:29:41;;;;;;;6.32;5.20;;;;;;;4.69;55.53;102596.88;5087614;28;20035;-83
2023/02/12 07:32:07;;;;;;;7.95;4.20;;;;;;;4.67;55.71;102598.56;5071065;28;20084;-82
2023/02/12 07:34:32;;;;;;;9.65;4.70;;;;;;;4.60;55.98;102586.53;5071368;28;20481;-82
2023/02/12 07:36:58;;;;;;;6.72;4.40;;;;;;;4.90;55.64;102607.25;5072523;28;20037;-82
2023/02/12 07:39:23;;;;;;;6.50;4.90;;;;;;;4.90;55.71;102603.84;5088037;28;20107;-82
2023/02/12 07:41:48;;;;;;;4.55;3.70;;;;;;;4.88;55.84;102593.56;5054476;28;20491;-82
2023/02/12 07:44:14;;;;;;;30.45;6.28;;;;;;;5.06;55.00;102603.09;5054081;28;20028;-82
2023/02/12 07:46:47;;;;;;;9.27;6.30;;;;;;;5.03;55.04;102605.63;5071063;28;20036;-83
2023/02/12 07:49:14;;;;;;;6.57;5.97;;;;;;;5.10;55.00;102615.06;5070755;28;20020;-82
2023/02/12 07:51:40;;;;;;;12.40;7.68;;;;;;;5.23;54.85;102623.72;5070824;28;20403;-82
2023/02/12 07:54:06;;;;;;;18.15;6.93;;;;;;;5.26;54.67;102610.03;5087560;28;20033;-83
2023/02/12 07:56:34;;;;;;;10.75;5.45;;;;;;;5.35;54.09;102621.19;5087642;28;20477;-82
2023/02/12 07:59:00;;;;;;;8.05;6.32;;;;;;;5.27;54.23;102602.31;5087105;28;20059;-82
2023/02/12 08:01:46;;;;;;;9.25;6.95;;;;;;;5.38;53.69;102615.19;5070628;28;20024;-82
2023/02/12 08:04:13;;;;;;;4.88;3.90;;;;;;;5.57;53.91;102631.53;5087420;28;20028;-83
2023/02/12 08:06:43;;;;;;;6.07;4.78;;;;;;;5.41;54.16;102610.97;5070481;28;20035;-83
2023/02/12 08:09:10;;;;;;;8.70;6.00;;;;;;;5.48;53.91;102622.09;5070152;28;20131;-83
2023/02/12 08:11:36;;;;;;;14.05;7.38;;;;;;;5.50;53.61;102629.78;5087152;28;20029;-83
2023/02/12 08:14:02;;;;;;;13.30;5.07;;;;;;;5.51;54.39;102634.09;5070153;28;20035;-82
2023/02/12 08:16:27;;;;;;;8.23;5.38;;;;;;;5.58;54.44;102638.38;5087346;28;20392;-82
2023/02/12 08:18:53;;;;;;;8.10;5.80;;;;;;;5.64;54.43;102643.56;5087209;28;20107;-82
2023/02/12 08:21:26;;;;;;;10.85;7.28;;;;;;;5.65;53.68;102637.56;5087108;28;20433;-82
2023/02/12 08:23:56;;;;;;;11.10;5.88;;;;;;;5.80;54.20;102640.19;5070450;28;20025;-82
2023/02/12 08:26:27;;;;;;;6.28;4.70;;;;;;;5.78;54.19;102648.72;5087206;28;20028;-82
2023/02/12 08:28:55;;;;;;;5.13;4.60;;;;;;;5.84;54.09;102643.63;5086858;28;20491;-82
2023/02/12 08:31:22;;;;;;;7.78;4.78;;;;;;;5.65;54.67;102632.44;5086941;28;20028;-82
2023/02/12 08:33:48;;;;;;;9.60;4.47;;;;;;;5.77;54.48;102655.56;5086918;28;20036;-82
2023/02/12 08:36:15;;;;;;;12.52;6.43;;;;;;;5.83;54.06;102655.63;5086897;28;20116;-83
2023/02/12 08:38:40;;;;;;;11.27;6.68;;;;;;;5.88;54.35;102653.03;5086944;28;20055;-83
2023/02/12 08:41:08;;;;;;;12.18;7.55;;;;;;;5.96;53.94;102644.53;5069860;28;20499;-82
2023/02/12 08:43:34;;;;;;;8.50;6.07;;;;;;;5.86;53.51;102624.78;5086409;28;20058;-83
2023/02/12 08:46:06;;;;;;;13.05;6.45;;;;;;;5.85;54.35;102638.50;5069995;28;20032;-83
2023/02/12 08:48:31;;;;;;;8.02;4.70;;;;;;;5.66;53.96;102619.59;5069667;28;20024;-83
2023/02/12 08:51:06;;;;;;;10.13;6.05;;;;;;;5.71;53.98;102647.88;5069837;28;20036;-83
2023/02/12 08:53:31;;;;;;;7.65;4.35;;;;;;;5.99;53.75;102666.81;5086464;28;20029;-83
2023/02/12 08:55:57;;;;;;;6.43;5.40;;;;;;;6.06;53.99;102647.13;5086604;28;20068;-83
2023/02/12 08:58:22;;;;;;;9.35;6.10;;;;;;;6.04;53.67;102642.84;5069075;28;20024;-83
2023/02/12 09:00:48;;;;;;;7.80;5.53;;;;;;;5.93;53.08;102616.28;5086399;28;20039;-83
2023/02/12 09:03:13;;;;;;;10.65;5.70;;;;;;;6.26;52.29;102673.72;5069482;28;20059;-83
2023/02/12 09:05:39;;;;;;;8.30;5.75;;;;;;;6.14;52.79;102668.56;5069491;28;20020;-83
2023/02/12 09:08:05;;;;;;;13.80;7.88;;;;;;;6.21;52.89;102684.00;5086025;28;20052;-83
2023/02/12 09:10:30;;;;;;;10.93;6.07;;;;;;;6.22;53.37;102672.88;5069185;28;20518;-83
2023/02/12 09:12:56;;;;;;;7.28;6.22;;;;;;;6.50;52.55;102696.06;5086174;28;20060;-83
2023/02/12 09:15:21;;;;;;;8.88;5.55;;;;;;;6.53;52.85;102691.75;5086227;28;20055;-82
2023/02/12 09:17:47;;;;;;;14.70;8.77;;;;;;;6.36;52.20;102672.88;5086373;28;20039;-83
2023/02/12 09:20:12;;;;;;;12.55;7.35;;;;;;;6.49;52.72;102687.47;5052747;28;20032;-83
2023/02/12 09:22:38;;;;;;;6.88;4.55;;;;;;;6.53;52.68;102662.63;5085978;28;20450;-83
2023/02/12 09:25:05;;;;;;;9.60;6.60;;;;;;;7.04;52.72;102709.75;5069138;28;20427;-83
2023/02/12 09:27:30;;;;;;;10.52;6.43;;;;;;;7.06;51.36;102708.03;5086072;28;20385;-82
2023/02/12 09:29:55;;;;;;;10.38;7.10;;;;;;;7.17;51.78;102704.56;5086163;28;20040;-83
2023/02/12 09:32:21;;;;;;;11.63;5.50;;;;;;;7.38;51.31;102710.56;5069336;28;20020;-83
2023/02/12 09:34:46;;;;;;;7.22;4.60;;;;;;;7.52;51.35;102721.69;5069225;28;20039;-83
2023/02/12 09:37:12;;;;;;;14.13;5.95;;;;;;;7.56;50.15;102707.91;5085689;28;20032;-83
2023/02/12 09:39:37;;;;;;;7.80;5.53;;;;;;;7.62;50.48;102702.75;5085745;28;20029;-83
2023/02/12 09:42:42;;;;;;;9.95;6.25;;;;;;;7.88;50.46;102720.69;5085946;28;20458;-83
2023/02/12 09:45:19;;;;;;;4.07;3.28;;;;;;;7.71;49.24;102694.13;5069007;28;20027;-83
2023/02/12 09:48:06;;;;;;;7.65;5.55;;;;;;;7.70;48.77;102723.34;5085857;28;20032;-83
2023/02/12 09:50:36;;;;;;;5.50;4.55;;;;;;;7.65;49.62;102715.63;5070415;28;20115;-83
2023/02/12 09:53:02;;;;;;;8.20;6.10;;;;;;;7.72;49.11;102726.75;5085683;28;20479;-83
2023/02/12 09:55:32;;;;;;;10.65;5.47;;;;;;;7.63;49.08;102704.47;5068701;28;20028;-83
2023/02/12 09:57:59;;;;;;;5.38;3.78;;;;;;;7.66;48.99;102695.84;5085983;28;20032;-83
2023/02/12 10:00:30;;;;;;;12.98;7.28;;;;;;;7.87;47.55;102725.88;5069375;28;20024;-83
2023/02/12 10:02:56;;;;;;;9.07;5.78;;;;;;;7.81;48.06;102725.88;5069158;28;20032;-83
2023/02/12 10:05:27;;;;;;;11.10;5.97;;;;;;;7.65;48.35;102710.47;5068954;28;20025;-83
2023/02/12 10:08:11;;;;;;;6.70;4.68;;;;;;;7.83;48.67;102739.59;5085063;28;20060;-83
2023/02/12 10:11:31;;;;;;;8.38;6.05;;;;;;;7.62;47.46;102725.94;5085399;28;20032;-83
2023/02/12 10:14:13;;;;;;;7.15;4.63;;;;;;;7.73;49.07;102733.63;5038962;28;20038;-83
2023/02/12 10:17:08;;;;;;;9.00;5.50;;;;;;;7.77;49.03;102745.66;4996690;28;20168;-83
2023/02/12 10:19:48;;;;;;;7.28;5.63;;;;;;;7.77;48.95;102750.81;5057755;28;20123;-83
2023/02/12 10:22:44;;;;;;;7.80;5.68;;;;;;;7.72;49.32;102749.94;5069865;28;20111;-83
2023/02/12 10:25:15;;;;;;;17.13;6.93;;;;;;;7.85;49.23;102743.03;5083235;28;20028;-83
2023/02/12 10:27:48;;;;;;;11.43;7.55;;;;;;;7.90;48.63;102738.72;5085588;28;20507;-83
2023/02/12 10:30:26;;;;;;;7.93;6.10;;;;;;;7.67;49.23;102708.75;5085191;28;20040;-83
2023/02/12 10:32:57;;;;;;;9.13;5.68;;;;;;;7.75;49.01;102737.03;5085272;28;20052;-83
2023/02/12 10:35:23;;;;;;;10.45;6.85;;;;;;;7.73;48.91;102739.63;5071999;28;20041;-83
2023/02/12 10:37:59;;;;;;;7.22;6.13;;;;;;;7.64;48.95;102733.66;5072023;28;20025;-83
2023/02/12 10:40:31;;;;;;;12.80;7.60;;;;;;;7.89;49.03;102744.75;5072479;28;20031;-83
2023/02/12 10:42:57;;;;;;;5.80;4.15;;;;;;;7.98;48.73;102734.41;5089070;28;20033;-83
2023/02/12 10:45:33;;;;;;;6.93;4.35;;;;;;;8.12;48.42;102740.34;5089120;28;20388;-83
2023/02/12 10:48:09;;;;;;;11.60;6.47;;;;;;;8.23;48.69;102724.81;5088978;28;20107;-83
2023/02/12 10:50:40;;;;;;;6.97;4.60;;;;;;;8.28;47.71;102749.72;5089087;28;20024;-83
2023/02/12 10:53:12;;;;;;;8.80;5.03;;;;;;;8.22;47.94;102715.34;5073112;28;20025;-83
2023/02/12 10:55:37;;;;;;;12.80;6.45;;;;;;;8.45;47.63;102748.75;5088294;28;20031;-83
2023/02/12 10:58:03;;;;;;;9.95;5.13;;;;;;;8.41;48.22;102739.34;5088531;28;20028;-83
2023/02/12 11:00:30;;;;;;;18.38;7.22;;;;;;;8.51;48.53;102751.31;5088594;28;20028;-83
2023/02/12 11:03:12;;;;;;;20.17;5.40;;;;;;;8.48;47.69;102751.34;5088689;28;20033;-83
2023/02/12 11:05:39;;;;;;;14.55;5.93;;;;;;;8.49;47.56;102750.47;5087681;28;20485;-83
2023/02/12 11:08:05;;;;;;;8.55;5.90;;;;;;;8.48;47.33;102754.78;5088078;28;20056;-83
2023/02/12 11:10:40;;;;;;;8.02;5.55;;;;;;;8.24;47.16;102722.22;5088344;28;20056;-83
2023/02/12 11:13:19;;;;;;;7.20;5.63;;;;;;;8.69;48.47;102758.94;5087415;28;20186;-83
2023/02/12 11:15:46;;;;;;;7.90;5.22;;;;;;;8.77;47.45;102733.94;5086561;28;20035;-83
2023/02/12 11:18:21;;;;;;;5.85;5.00;;;;;;;8.94;46.33;102756.16;5088517;28;20021;-83
2023/02/12 11:20:57;;;;;;;10.15;5.80;;;;;;;9.04;46.13;102760.38;5088466;28;20089;-83
2023/02/12 11:23:25;;;;;;;6.38;3.97;;;;;;;9.05;46.14;102755.22;5071089;28;20510;-83
2023/02/12 11:25:55;;;;;;;6.28;3.92;;;;;;;8.88;45.32;102745.03;5088044;28;20033;-83
2023/02/12 11:28:21;;;;;;;9.32;6.20;;;;;;;8.94;46.79;102754.44;5088142;28;20588;-83
2023/02/12 11:30:57;;;;;;;10.93;5.20;;;;;;;8.97;46.12;102762.16;5054599;28;20029;-83
2023/02/12 11:33:24;;;;;;;9.25;4.78;;;;;;;8.91;45.89;102757.03;5087298;28;20029;-83
2023/02/12 11:35:54;;;;;;;9.60;5.63;;;;;;;8.78;46.14;102745.97;5088182;28;20033;-83
2023/02/12 11:38:35;;;;;;;15.07;5.82;;;;;;;8.74;45.89;102770.06;5087541;28;20119;-83
2023/02/12 11:41:21;;;;;;;10.38;5.20;;;;;;;8.85;46.00;102782.94;5086166;28;20028;-83
2023/02/12 11:43:46;;;;;;;13.07;4.82;;;;;;;8.59;45.92;102741.81;5064138;28;20041;-83
2023/02/12 11:46:18;;;;;;;8.13;4.22;;;;;;;8.85;45.56;102783.78;5071060;28;20040;-83
2023/02/12 11:48:43;;;;;;;7.82;3.88;;;;;;;8.74;45.41;102772.66;5087600;28;20078;-83